sensor_id;sensor_type;location;lat;lon;timestamp;P1;durP1;ratioP1;P2;durP2;ratioP2
34234;SDS011;20500;49.856;20.290;2023-02-27T00:04:48;22.20;;;12.10;;
34234;SDS011;20500;49.856;20.290;2023-02-27T00:07:56;21.70;;;10.30;;
34234;SDS011;20500;49.856;20.290;2023-02-27T00:11:02;22.70;;;11.50;;
34234;SDS011;20500;49.856;20.290;2023-02-27T00:14:09;21.00;;;11.20;;
34234;SDS011;20500;49.856;20.290;2023-02-27T00:17:15;20.10;;;10.20;;
34234;SDS011;20500;49.856;20.290;2023-02-27T00:20:21;22.60;;;11.50;;
34234;SDS011;20500;49.856;20.290;2023-02-27T00:23:28;21.80;;;11.20;;
34234;SDS011;20500;49.856;20.290;2023-02-27T00:26:34;30.60;;;18.20;;
34234;SDS011;20500;49.856;20.290;2023-02-27T00:32:45;20.40;;;10.70;;
34234;SDS011;20500;49.856;20.290;2023-02-27T00:35:58;22.40;;;12.90;;
34234;SDS011;20500;49.856;20.290;2023-02-27T00:39:05;28.60;;;16.20;;
34234;SDS011;20500;49.856;20.290;2023-02-27T00:42:11;28.90;;;16.10;;
34234;SDS011;20500;49.856;20.290;2023-02-27T00:45:17;31.10;;;18.30;;
34234;SDS011;20500;49.856;20.290;2023-02-27T00:48:24;20.20;;;11.50;;
34234;SDS011;20500;49.856;20.290;2023-02-27T00:54:35;17.10;;;9.50;;
34234;SDS011;20500;49.856;20.290;2023-02-27T00:57:41;19.70;;;10.90;;
34234;SDS011;20500;49.856;20.290;2023-02-27T01:00:47;21.10;;;10.80;;
34234;SDS011;20500;49.856;20.290;2023-02-27T01:06:58;20.20;;;10.00;;
34234;SDS011;20500;49.856;20.290;2023-02-27T01:16:15;19.60;;;10.30;;
34234;SDS011;20500;49.856;20.290;2023-02-27T01:19:21;20.50;;;9.90;;
34234;SDS011;20500;49.856;20.290;2023-02-27T01:22:28;20.20;;;9.50;;
34234;SDS011;20500;49.856;20.290;2023-02-27T01:25:34;21.70;;;9.80;;
34234;SDS011;20500;49.856;20.290;2023-02-27T01:28:41;18.70;;;9.70;;
34234;SDS011;20500;49.856;20.290;2023-02-27T01:31:47;18.00;;;9.50;;
34234;SDS011;20500;49.856;20.290;2023-02-27T01:34:54;17.40;;;9.20;;
34234;SDS011;20500;49.856;20.290;2023-02-27T01:38:00;18.40;;;9.30;;
34234;SDS011;20500;49.856;20.290;2023-02-27T01:41:07;19.10;;;10.10;;
34234;SDS011;20500;49.856;20.290;2023-02-27T01:44:13;21.10;;;11.00;;
34234;SDS011;20500;49.856;20.290;2023-02-27T01:47:19;21.60;;;10.10;;
34234;SDS011;20500;49.856;20.290;2023-02-27T01:50:26;18.80;;;9.20;;
34234;SDS011;20500;49.856;20.290;2023-02-27T01:53:33;17.30;;;8.40;;
34234;SDS011;20500;49.856;20.290;2023-02-27T01:56:41;17.10;;;8.80;;
34234;SDS011;20500;49.856;20.290;2023-02-27T01:59:48;19.70;;;9.10;;
34234;SDS011;20500;49.856;20.290;2023-02-27T02:02:58;18.70;;;8.60;;
34234;SDS011;20500;49.856;20.290;2023-02-27T02:06:11;19.50;;;9.00;;
34234;SDS011;20500;49.856;20.290;2023-02-27T02:12:24;16.40;;;8.40;;
34234;SDS011;20500;49.856;20.290;2023-02-27T02:15:34;17.50;;;7.80;;
34234;SDS011;20500;49.856;20.290;2023-02-27T02:18:46;18.00;;;7.80;;
34234;SDS011;20500;49.856;20.290;2023-02-27T02:22:17;16.80;;;8.10;;
34234;SDS011;20500;49.856;20.290;2023-02-27T02:25:56;16.60;;;7.50;;
34234;SDS011;20500;49.856;20.290;2023-02-27T02:33:10;17.30;;;7.50;;
34234;SDS011;20500;49.856;20.290;2023-02-27T02:40:29;18.20;;;7.20;;
34234;SDS011;20500;49.856;20.290;2023-02-27T02:43:45;18.30;;;7.00;;
34234;SDS011;20500;49.856;20.290;2023-02-27T02:47:03;18.60;;;7.20;;
34234;SDS011;20500;49.856;20.290;2023-02-27T02:50:18;17.80;;;6.90;;
34234;SDS011;20500;49.856;20.290;2023-02-27T02:53:31;16.70;;;7.50;;
34234;SDS011;20500;49.856;20.290;2023-02-27T02:56:45;17.40;;;7.50;;
34234;SDS011;20500;49.856;20.290;2023-02-27T02:59:54;17.50;;;7.20;;
34234;SDS011;20500;49.856;20.290;2023-02-27T03:03:09;14.90;;;7.10;;
34234;SDS011;20500;49.856;20.290;2023-02-27T03:06:21;18.80;;;7.90;;
34234;SDS011;20500;49.856;20.290;2023-02-27T03:09:32;18.60;;;8.00;;
34234;SDS011;20500;49.856;20.290;2023-02-27T03:12:43;16.10;;;6.90;;
34234;SDS011;20500;49.856;20.290;2023-02-27T03:15:53;18.70;;;7.40;;
34234;SDS011;20500;49.856;20.290;2023-02-27T03:19:07;17.90;;;7.70;;
34234;SDS011;20500;49.856;20.290;2023-02-27T03:22:18;15.40;;;6.50;;
34234;SDS011;20500;49.856;20.290;2023-02-27T03:25:29;14.30;;;6.10;;
34234;SDS011;20500;49.856;20.290;2023-02-27T03:28:38;17.40;;;6.70;;
34234;SDS011;20500;49.856;20.290;2023-02-27T03:31:53;17.20;;;6.60;;
34234;SDS011;20500;49.856;20.290;2023-02-27T03:35:04;14.80;;;6.70;;
34234;SDS011;20500;49.856;20.290;2023-02-27T03:38:13;14.00;;;6.50;;
34234;SDS011;20500;49.856;20.290;2023-02-27T03:41:27;16.10;;;7.00;;
34234;SDS011;20500;49.856;20.290;2023-02-27T03:44:37;14.40;;;6.60;;
34234;SDS011;20500;49.856;20.290;2023-02-27T03:47:54;15.60;;;6.50;;
34234;SDS011;20500;49.856;20.290;2023-02-27T03:51:01;14.20;;;5.80;;
34234;SDS011;20500;49.856;20.290;2023-02-27T03:54:08;17.60;;;6.70;;
34234;SDS011;20500;49.856;20.290;2023-02-27T03:57:18;15.90;;;6.90;;
34234;SDS011;20500;49.856;20.290;2023-02-27T04:00:24;16.00;;;6.20;;
34234;SDS011;20500;49.856;20.290;2023-02-27T04:03:33;17.20;;;6.50;;
34234;SDS011;20500;49.856;20.290;2023-02-27T04:06:45;13.50;;;5.80;;
34234;SDS011;20500;49.856;20.290;2023-02-27T04:10:18;14.10;;;5.70;;
34234;SDS011;20500;49.856;20.290;2023-02-27T04:13:50;14.40;;;6.10;;
34234;SDS011;20500;49.856;20.290;2023-02-27T04:17:15;17.10;;;6.50;;
34234;SDS011;20500;49.856;20.290;2023-02-27T04:20:32;15.40;;;6.00;;
34234;SDS011;20500;49.856;20.290;2023-02-27T04:23:47;15.50;;;6.20;;
34234;SDS011;20500;49.856;20.290;2023-02-27T04:27:01;17.30;;;6.80;;
34234;SDS011;20500;49.856;20.290;2023-02-27T04:30:18;16.00;;;6.50;;
34234;SDS011;20500;49.856;20.290;2023-02-27T04:33:36;15.30;;;6.50;;
34234;SDS011;20500;49.856;20.290;2023-02-27T04:36:46;16.90;;;7.00;;
34234;SDS011;20500;49.856;20.290;2023-02-27T04:39:59;15.50;;;6.70;;
34234;SDS011;20500;49.856;20.290;2023-02-27T04:43:09;16.40;;;6.30;;
34234;SDS011;20500;49.856;20.290;2023-02-27T04:46:18;15.60;;;6.50;;
34234;SDS011;20500;49.856;20.290;2023-02-27T04:49:28;16.10;;;6.50;;
34234;SDS011;20500;49.856;20.290;2023-02-27T04:52:39;15.60;;;6.80;;
34234;SDS011;20500;49.856;20.290;2023-02-27T04:55:49;15.00;;;6.40;;
34234;SDS011;20500;49.856;20.290;2023-02-27T04:58:59;16.50;;;6.50;;
34234;SDS011;20500;49.856;20.290;2023-02-27T05:02:10;17.10;;;6.80;;
34234;SDS011;20500;49.856;20.290;2023-02-27T05:05:23;16.70;;;7.00;;
34234;SDS011;20500;49.856;20.290;2023-02-27T05:08:33;16.50;;;7.00;;
34234;SDS011;20500;49.856;20.290;2023-02-27T05:11:46;14.70;;;6.40;;
34234;SDS011;20500;49.856;20.290;2023-02-27T05:14:58;15.70;;;6.50;;
34234;SDS011;20500;49.856;20.290;2023-02-27T05:18:11;15.70;;;6.40;;
34234;SDS011;20500;49.856;20.290;2023-02-27T05:21:22;14.40;;;7.10;;
34234;SDS011;20500;49.856;20.290;2023-02-27T05:24:31;14.80;;;6.90;;
34234;SDS011;20500;49.856;20.290;2023-02-27T05:27:45;15.20;;;6.40;;
34234;SDS011;20500;49.856;20.290;2023-02-27T05:30:56;17.10;;;7.40;;
34234;SDS011;20500;49.856;20.290;2023-02-27T05:34:08;16.80;;;6.70;;
34234;SDS011;20500;49.856;20.290;2023-02-27T05:37:21;15.00;;;6.10;;
34234;SDS011;20500;49.856;20.290;2023-02-27T05:40:32;17.70;;;7.10;;
34234;SDS011;20500;49.856;20.290;2023-02-27T05:43:40;17.20;;;6.30;;
34234;SDS011;20500;49.856;20.290;2023-02-27T05:46:51;16.40;;;7.10;;
34234;SDS011;20500;49.856;20.290;2023-02-27T05:50:01;19.80;;;7.40;;
34234;SDS011;20500;49.856;20.290;2023-02-27T05:53:12;15.80;;;6.90;;
34234;SDS011;20500;49.856;20.290;2023-02-27T05:56:21;15.00;;;6.80;;
34234;SDS011;20500;49.856;20.290;2023-02-27T05:59:31;16.40;;;7.00;;
34234;SDS011;20500;49.856;20.290;2023-02-27T06:02:45;15.30;;;6.30;;
34234;SDS011;20500;49.856;20.290;2023-02-27T06:05:52;15.50;;;6.70;;
34234;SDS011;20500;49.856;20.290;2023-02-27T06:09:00;16.00;;;7.00;;
34234;SDS011;20500;49.856;20.290;2023-02-27T06:12:06;15.40;;;6.60;;
34234;SDS011;20500;49.856;20.290;2023-02-27T06:15:13;16.50;;;6.60;;
34234;SDS011;20500;49.856;20.290;2023-02-27T06:18:21;16.90;;;6.60;;
34234;SDS011;20500;49.856;20.290;2023-02-27T06:21:27;16.90;;;6.80;;
34234;SDS011;20500;49.856;20.290;2023-02-27T06:27:39;16.30;;;7.00;;
34234;SDS011;20500;49.856;20.290;2023-02-27T06:30:45;13.80;;;5.70;;
34234;SDS011;20500;49.856;20.290;2023-02-27T06:33:55;16.40;;;6.50;;
34234;SDS011;20500;49.856;20.290;2023-02-27T06:40:07;15.60;;;6.50;;
34234;SDS011;20500;49.856;20.290;2023-02-27T06:43:15;16.00;;;6.70;;
34234;SDS011;20500;49.856;20.290;2023-02-27T06:46:24;14.70;;;6.30;;
34234;SDS011;20500;49.856;20.290;2023-02-27T06:49:31;16.50;;;6.60;;
34234;SDS011;20500;49.856;20.290;2023-02-27T06:52:38;16.10;;;6.40;;
34234;SDS011;20500;49.856;20.290;2023-02-27T06:55:44;16.50;;;7.50;;
34234;SDS011;20500;49.856;20.290;2023-02-27T06:58:51;15.00;;;6.10;;
34234;SDS011;20500;49.856;20.290;2023-02-27T07:01:59;15.40;;;6.20;;
34234;SDS011;20500;49.856;20.290;2023-02-27T07:05:07;14.20;;;5.90;;
34234;SDS011;20500;49.856;20.290;2023-02-27T07:08:14;13.10;;;5.20;;
34234;SDS011;20500;49.856;20.290;2023-02-27T07:14:25;17.10;;;5.80;;
34234;SDS011;20500;49.856;20.290;2023-02-27T07:17:31;12.90;;;5.40;;
34234;SDS011;20500;49.856;20.290;2023-02-27T07:20:38;14.30;;;5.50;;
34234;SDS011;20500;49.856;20.290;2023-02-27T07:23:44;15.60;;;6.60;;
34234;SDS011;20500;49.856;20.290;2023-02-27T07:29:55;15.20;;;5.50;;
34234;SDS011;20500;49.856;20.290;2023-02-27T07:33:02;14.10;;;5.40;;
34234;SDS011;20500;49.856;20.290;2023-02-27T07:36:09;15.50;;;5.70;;
34234;SDS011;20500;49.856;20.290;2023-02-27T07:39:15;13.80;;;4.80;;
34234;SDS011;20500;49.856;20.290;2023-02-27T07:45:26;15.60;;;5.90;;
34234;SDS011;20500;49.856;20.290;2023-02-27T07:51:37;13.80;;;5.60;;
34234;SDS011;20500;49.856;20.290;2023-02-27T07:54:44;12.80;;;5.30;;
34234;SDS011;20500;49.856;20.290;2023-02-27T07:57:50;14.30;;;5.30;;
34234;SDS011;20500;49.856;20.290;2023-02-27T08:00:56;13.40;;;4.60;;
34234;SDS011;20500;49.856;20.290;2023-02-27T08:07:07;14.50;;;4.90;;
34234;SDS011;20500;49.856;20.290;2023-02-27T08:13:18;13.60;;;5.00;;
34234;SDS011;20500;49.856;20.290;2023-02-27T08:16:44;13.00;;;5.10;;
34234;SDS011;20500;49.856;20.290;2023-02-27T08:22:55;10.70;;;4.20;;
34234;SDS011;20500;49.856;20.290;2023-02-27T08:26:02;10.90;;;4.40;;
34234;SDS011;20500;49.856;20.290;2023-02-27T08:29:08;10.70;;;3.70;;
34234;SDS011;20500;49.856;20.290;2023-02-27T08:32:17;10.30;;;3.60;;
34234;SDS011;20500;49.856;20.290;2023-02-27T08:35:23;9.60;;;3.50;;
34234;SDS011;20500;49.856;20.290;2023-02-27T08:38:29;8.70;;;2.90;;
34234;SDS011;20500;49.856;20.290;2023-02-27T08:44:40;10.50;;;3.50;;
34234;SDS011;20500;49.856;20.290;2023-02-27T08:50:51;8.70;;;3.30;;
34234;SDS011;20500;49.856;20.290;2023-02-27T08:53:59;8.70;;;3.50;;
34234;SDS011;20500;49.856;20.290;2023-02-27T09:00:12;9.80;;;3.10;;
34234;SDS011;20500;49.856;20.290;2023-02-27T09:03:19;11.40;;;4.40;;
34234;SDS011;20500;49.856;20.290;2023-02-27T09:06:31;7.50;;;2.70;;
34234;SDS011;20500;49.856;20.290;2023-02-27T09:09:38;8.00;;;2.80;;
34234;SDS011;20500;49.856;20.290;2023-02-27T09:12:44;6.90;;;2.40;;
34234;SDS011;20500;49.856;20.290;2023-02-27T09:15:51;5.90;;;2.00;;
34234;SDS011;20500;49.856;20.290;2023-02-27T09:18:57;5.20;;;1.70;;
34234;SDS011;20500;49.856;20.290;2023-02-27T09:22:04;7.00;;;2.60;;
34234;SDS011;20500;49.856;20.290;2023-02-27T09:28:14;5.50;;;1.70;;
34234;SDS011;20500;49.856;20.290;2023-02-27T09:31:21;7.60;;;1.80;;
34234;SDS011;20500;49.856;20.290;2023-02-27T09:34:28;5.60;;;2.00;;
34234;SDS011;20500;49.856;20.290;2023-02-27T09:37:35;6.70;;;2.30;;
34234;SDS011;20500;49.856;20.290;2023-02-27T09:43:46;6.40;;;2.10;;
34234;SDS011;20500;49.856;20.290;2023-02-27T09:46:54;6.10;;;2.00;;
34234;SDS011;20500;49.856;20.290;2023-02-27T09:50:01;7.30;;;2.50;;
34234;SDS011;20500;49.856;20.290;2023-02-27T09:53:11;7.50;;;2.10;;
34234;SDS011;20500;49.856;20.290;2023-02-27T09:56:20;6.40;;;2.30;;
34234;SDS011;20500;49.856;20.290;2023-02-27T09:59:33;11.10;;;3.90;;
34234;SDS011;20500;49.856;20.290;2023-02-27T10:02:46;6.60;;;2.20;;
34234;SDS011;20500;49.856;20.290;2023-02-27T10:06:05;9.70;;;4.30;;
34234;SDS011;20500;49.856;20.290;2023-02-27T10:09:27;7.00;;;2.50;;
34234;SDS011;20500;49.856;20.290;2023-02-27T10:12:45;8.50;;;2.80;;
34234;SDS011;20500;49.856;20.290;2023-02-27T10:16:08;7.80;;;2.40;;
34234;SDS011;20500;49.856;20.290;2023-02-27T10:19:19;6.70;;;2.00;;
34234;SDS011;20500;49.856;20.290;2023-02-27T10:22:35;12.20;;;6.20;;
34234;SDS011;20500;49.856;20.290;2023-02-27T10:25:46;9.70;;;3.00;;
34234;SDS011;20500;49.856;20.290;2023-02-27T10:28:54;9.10;;;2.90;;
34234;SDS011;20500;49.856;20.290;2023-02-27T10:32:03;7.80;;;2.60;;
34234;SDS011;20500;49.856;20.290;2023-02-27T10:35:19;9.80;;;2.70;;
34234;SDS011;20500;49.856;20.290;2023-02-27T10:38:34;8.40;;;2.70;;
34234;SDS011;20500;49.856;20.290;2023-02-27T10:41:43;7.80;;;2.60;;
34234;SDS011;20500;49.856;20.290;2023-02-27T10:44:51;8.20;;;2.80;;
34234;SDS011;20500;49.856;20.290;2023-02-27T10:47:58;7.30;;;2.70;;
34234;SDS011;20500;49.856;20.290;2023-02-27T10:51:22;7.80;;;2.70;;
34234;SDS011;20500;49.856;20.290;2023-02-27T10:54:32;11.70;;;4.20;;
34234;SDS011;20500;49.856;20.290;2023-02-27T10:57:40;6.60;;;2.50;;
34234;SDS011;20500;49.856;20.290;2023-02-27T11:00:53;9.70;;;2.80;;
34234;SDS011;20500;49.856;20.290;2023-02-27T11:04:01;8.10;;;2.50;;
34234;SDS011;20500;49.856;20.290;2023-02-27T11:07:08;7.70;;;2.60;;
34234;SDS011;20500;49.856;20.290;2023-02-27T11:10:18;8.80;;;3.20;;
34234;SDS011;20500;49.856;20.290;2023-02-27T11:13:26;9.90;;;3.10;;
34234;SDS011;20500;49.856;20.290;2023-02-27T11:16:33;9.60;;;3.60;;
34234;SDS011;20500;49.856;20.290;2023-02-27T11:19:53;9.40;;;3.10;;
34234;SDS011;20500;49.856;20.290;2023-02-27T11:23:02;18.30;;;9.20;;
34234;SDS011;20500;49.856;20.290;2023-02-27T11:26:10;41.30;;;25.00;;
34234;SDS011;20500;49.856;20.290;2023-02-27T11:29:23;11.30;;;4.60;;
34234;SDS011;20500;49.856;20.290;2023-02-27T11:32:35;10.00;;;3.80;;
34234;SDS011;20500;49.856;20.290;2023-02-27T11:39:00;10.20;;;4.10;;
34234;SDS011;20500;49.856;20.290;2023-02-27T11:42:13;11.10;;;4.50;;
34234;SDS011;20500;49.856;20.290;2023-02-27T11:45:28;7.90;;;2.90;;
34234;SDS011;20500;49.856;20.290;2023-02-27T11:48:56;10.30;;;4.40;;
34234;SDS011;20500;49.856;20.290;2023-02-27T11:52:11;9.30;;;3.10;;
34234;SDS011;20500;49.856;20.290;2023-02-27T11:55:25;9.80;;;4.40;;
34234;SDS011;20500;49.856;20.290;2023-02-27T11:58:34;8.20;;;2.80;;
34234;SDS011;20500;49.856;20.290;2023-02-27T12:01:47;7.50;;;2.70;;
34234;SDS011;20500;49.856;20.290;2023-02-27T12:04:58;8.10;;;2.70;;
34234;SDS011;20500;49.856;20.290;2023-02-27T12:08:12;9.80;;;3.70;;
34234;SDS011;20500;49.856;20.290;2023-02-27T12:15:23;11.90;;;5.30;;
34234;SDS011;20500;49.856;20.290;2023-02-27T12:18:34;16.00;;;8.30;;
34234;SDS011;20500;49.856;20.290;2023-02-27T12:21:47;20.50;;;11.30;;
34234;SDS011;20500;49.856;20.290;2023-02-27T12:24:58;11.30;;;4.80;;
34234;SDS011;20500;49.856;20.290;2023-02-27T12:28:15;21.70;;;11.40;;
34234;SDS011;20500;49.856;20.290;2023-02-27T12:34:51;12.50;;;4.60;;
34234;SDS011;20500;49.856;20.290;2023-02-27T12:38:03;10.90;;;3.60;;
34234;SDS011;20500;49.856;20.290;2023-02-27T12:41:31;11.60;;;4.00;;
34234;SDS011;20500;49.856;20.290;2023-02-27T12:44:48;11.10;;;4.20;;
34234;SDS011;20500;49.856;20.290;2023-02-27T12:48:11;12.20;;;4.70;;
34234;SDS011;20500;49.856;20.290;2023-02-27T12:51:30;9.80;;;3.40;;
34234;SDS011;20500;49.856;20.290;2023-02-27T12:54:46;11.20;;;3.50;;
34234;SDS011;20500;49.856;20.290;2023-02-27T12:58:04;9.00;;;3.30;;
34234;SDS011;20500;49.856;20.290;2023-02-27T13:01:22;25.10;;;14.60;;
34234;SDS011;20500;49.856;20.290;2023-02-27T13:04:37;12.90;;;5.60;;
34234;SDS011;20500;49.856;20.290;2023-02-27T13:07:51;12.60;;;5.70;;
34234;SDS011;20500;49.856;20.290;2023-02-27T13:11:05;14.30;;;5.80;;
34234;SDS011;20500;49.856;20.290;2023-02-27T13:14:25;13.40;;;5.00;;
34234;SDS011;20500;49.856;20.290;2023-02-27T13:17:41;11.50;;;4.10;;
34234;SDS011;20500;49.856;20.290;2023-02-27T13:20:52;10.10;;;3.40;;
34234;SDS011;20500;49.856;20.290;2023-02-27T13:24:07;11.90;;;3.70;;
34234;SDS011;20500;49.856;20.290;2023-02-27T13:27:22;9.60;;;3.40;;
34234;SDS011;20500;49.856;20.290;2023-02-27T13:30:33;8.90;;;3.80;;
34234;SDS011;20500;49.856;20.290;2023-02-27T13:33:44;14.40;;;6.10;;
34234;SDS011;20500;49.856;20.290;2023-02-27T13:36:58;12.00;;;4.40;;
34234;SDS011;20500;49.856;20.290;2023-02-27T13:40:25;12.20;;;4.40;;
34234;SDS011;20500;49.856;20.290;2023-02-27T13:43:36;12.00;;;4.80;;
34234;SDS011;20500;49.856;20.290;2023-02-27T13:46:53;10.60;;;4.30;;
34234;SDS011;20500;49.856;20.290;2023-02-27T13:54:06;11.90;;;3.40;;
34234;SDS011;20500;49.856;20.290;2023-02-27T13:57:22;10.50;;;3.50;;
34234;SDS011;20500;49.856;20.290;2023-02-27T14:00:30;10.00;;;3.40;;
34234;SDS011;20500;49.856;20.290;2023-02-27T14:03:39;10.10;;;3.80;;
34234;SDS011;20500;49.856;20.290;2023-02-27T14:06:57;12.30;;;4.00;;
34234;SDS011;20500;49.856;20.290;2023-02-27T14:10:17;10.40;;;4.00;;
34234;SDS011;20500;49.856;20.290;2023-02-27T14:17:04;11.00;;;4.20;;
34234;SDS011;20500;49.856;20.290;2023-02-27T14:20:13;10.80;;;3.70;;
34234;SDS011;20500;49.856;20.290;2023-02-27T14:23:53;8.40;;;3.20;;
34234;SDS011;20500;49.856;20.290;2023-02-27T14:30:06;11.70;;;4.30;;
34234;SDS011;20500;49.856;20.290;2023-02-27T14:33:28;12.00;;;4.60;;
34234;SDS011;20500;49.856;20.290;2023-02-27T14:36:43;12.70;;;4.30;;
34234;SDS011;20500;49.856;20.290;2023-02-27T14:39:52;13.90;;;5.30;;
34234;SDS011;20500;49.856;20.290;2023-02-27T14:43:06;11.60;;;4.70;;
34234;SDS011;20500;49.856;20.290;2023-02-27T14:46:21;12.70;;;4.60;;
34234;SDS011;20500;49.856;20.290;2023-02-27T14:49:29;10.80;;;3.90;;
34234;SDS011;20500;49.856;20.290;2023-02-27T14:52:41;14.10;;;5.70;;
34234;SDS011;20500;49.856;20.290;2023-02-27T14:55:52;11.00;;;4.30;;
34234;SDS011;20500;49.856;20.290;2023-02-27T14:59:00;11.60;;;4.90;;
34234;SDS011;20500;49.856;20.290;2023-02-27T15:02:22;12.40;;;4.30;;
34234;SDS011;20500;49.856;20.290;2023-02-27T15:05:31;11.10;;;4.50;;
34234;SDS011;20500;49.856;20.290;2023-02-27T15:08:37;11.50;;;4.90;;
34234;SDS011;20500;49.856;20.290;2023-02-27T15:11:45;11.60;;;4.70;;
34234;SDS011;20500;49.856;20.290;2023-02-27T15:15:06;11.20;;;4.60;;
34234;SDS011;20500;49.856;20.290;2023-02-27T15:18:20;12.60;;;5.00;;
34234;SDS011;20500;49.856;20.290;2023-02-27T15:21:29;14.60;;;5.00;;
34234;SDS011;20500;49.856;20.290;2023-02-27T15:24:37;14.10;;;6.60;;
34234;SDS011;20500;49.856;20.290;2023-02-27T15:28:00;16.30;;;8.10;;
34234;SDS011;20500;49.856;20.290;2023-02-27T15:31:08;16.50;;;7.40;;
34234;SDS011;20500;49.856;20.290;2023-02-27T15:34:21;13.80;;;6.00;;
34234;SDS011;20500;49.856;20.290;2023-02-27T15:40:33;15.60;;;7.00;;
34234;SDS011;20500;49.856;20.290;2023-02-27T15:46:44;13.50;;;6.40;;
34234;SDS011;20500;49.856;20.290;2023-02-27T15:49:53;16.20;;;6.90;;
34234;SDS011;20500;49.856;20.290;2023-02-27T15:53:04;14.40;;;6.40;;
34234;SDS011;20500;49.856;20.290;2023-02-27T15:56:15;16.20;;;6.90;;
34234;SDS011;20500;49.856;20.290;2023-02-27T15:59:27;14.40;;;6.70;;
34234;SDS011;20500;49.856;20.290;2023-02-27T16:02:37;16.60;;;6.60;;
34234;SDS011;20500;49.856;20.290;2023-02-27T16:05:48;15.50;;;6.80;;
34234;SDS011;20500;49.856;20.290;2023-02-27T16:08:56;12.90;;;6.10;;
34234;SDS011;20500;49.856;20.290;2023-02-27T16:12:15;15.30;;;7.50;;
34234;SDS011;20500;49.856;20.290;2023-02-27T16:15:32;15.50;;;7.30;;
34234;SDS011;20500;49.856;20.290;2023-02-27T16:18:45;16.00;;;7.60;;
34234;SDS011;20500;49.856;20.290;2023-02-27T16:22:05;13.90;;;6.80;;
34234;SDS011;20500;49.856;20.290;2023-02-27T16:25:17;15.50;;;7.60;;
34234;SDS011;20500;49.856;20.290;2023-02-27T16:28:24;16.50;;;7.80;;
34234;SDS011;20500;49.856;20.290;2023-02-27T16:31:34;16.80;;;8.90;;
34234;SDS011;20500;49.856;20.290;2023-02-27T16:34:43;15.10;;;7.60;;
34234;SDS011;20500;49.856;20.290;2023-02-27T16:37:49;16.90;;;8.70;;
34234;SDS011;20500;49.856;20.290;2023-02-27T16:40:57;17.80;;;9.40;;
34234;SDS011;20500;49.856;20.290;2023-02-27T16:44:03;16.40;;;8.50;;
34234;SDS011;20500;49.856;20.290;2023-02-27T16:47:09;19.80;;;9.00;;
34234;SDS011;20500;49.856;20.290;2023-02-27T16:50:17;21.00;;;11.30;;
34234;SDS011;20500;49.856;20.290;2023-02-27T16:53:26;18.40;;;9.80;;
34234;SDS011;20500;49.856;20.290;2023-02-27T16:56:32;19.00;;;9.90;;
34234;SDS011;20500;49.856;20.290;2023-02-27T16:59:40;18.90;;;10.30;;
34234;SDS011;20500;49.856;20.290;2023-02-27T17:02:47;17.40;;;9.20;;
34234;SDS011;20500;49.856;20.290;2023-02-27T17:05:53;18.10;;;9.60;;
34234;SDS011;20500;49.856;20.290;2023-02-27T17:09:00;16.70;;;9.00;;
34234;SDS011;20500;49.856;20.290;2023-02-27T17:15:11;25.20;;;14.60;;
34234;SDS011;20500;49.856;20.290;2023-02-27T17:18:18;26.70;;;15.90;;
34234;SDS011;20500;49.856;20.290;2023-02-27T17:21:24;22.40;;;12.20;;
34234;SDS011;20500;49.856;20.290;2023-02-27T17:24:31;20.30;;;11.40;;
34234;SDS011;20500;49.856;20.290;2023-02-27T17:27:37;19.50;;;11.20;;
34234;SDS011;20500;49.856;20.290;2023-02-27T17:30:44;20.80;;;11.00;;
34234;SDS011;20500;49.856;20.290;2023-02-27T17:33:52;21.10;;;11.60;;
34234;SDS011;20500;49.856;20.290;2023-02-27T17:36:58;22.40;;;12.00;;
34234;SDS011;20500;49.856;20.290;2023-02-27T17:40:05;22.80;;;13.10;;
34234;SDS011;20500;49.856;20.290;2023-02-27T17:43:14;22.10;;;13.70;;
34234;SDS011;20500;49.856;20.290;2023-02-27T17:46:20;24.10;;;13.40;;
34234;SDS011;20500;49.856;20.290;2023-02-27T17:49:28;22.40;;;13.10;;
34234;SDS011;20500;49.856;20.290;2023-02-27T17:52:35;25.40;;;15.80;;
34234;SDS011;20500;49.856;20.290;2023-02-27T17:55:41;26.30;;;15.30;;
34234;SDS011;20500;49.856;20.290;2023-02-27T17:58:48;29.40;;;16.20;;
34234;SDS011;20500;49.856;20.290;2023-02-27T18:01:54;30.50;;;17.80;;
34234;SDS011;20500;49.856;20.290;2023-02-27T18:05:00;27.30;;;17.30;;
34234;SDS011;20500;49.856;20.290;2023-02-27T18:08:08;28.00;;;15.80;;
34234;SDS011;20500;49.856;20.290;2023-02-27T18:11:15;26.80;;;15.60;;
34234;SDS011;20500;49.856;20.290;2023-02-27T18:14:22;23.30;;;11.90;;
34234;SDS011;20500;49.856;20.290;2023-02-27T18:17:28;23.60;;;12.00;;
34234;SDS011;20500;49.856;20.290;2023-02-27T18:20:35;25.80;;;13.00;;
34234;SDS011;20500;49.856;20.290;2023-02-27T18:23:42;22.80;;;12.70;;
34234;SDS011;20500;49.856;20.290;2023-02-27T18:26:49;20.30;;;10.90;;
34234;SDS011;20500;49.856;20.290;2023-02-27T18:29:56;21.70;;;11.80;;
34234;SDS011;20500;49.856;20.290;2023-02-27T18:36:07;21.40;;;10.90;;
34234;SDS011;20500;49.856;20.290;2023-02-27T18:39:14;20.10;;;10.70;;
34234;SDS011;20500;49.856;20.290;2023-02-27T18:42:20;22.50;;;12.10;;
34234;SDS011;20500;49.856;20.290;2023-02-27T18:45:26;23.10;;;11.70;;
34234;SDS011;20500;49.856;20.290;2023-02-27T18:48:32;22.10;;;12.10;;
34234;SDS011;20500;49.856;20.290;2023-02-27T18:54:43;21.80;;;12.20;;
34234;SDS011;20500;49.856;20.290;2023-02-27T18:57:49;23.40;;;12.60;;
34234;SDS011;20500;49.856;20.290;2023-02-27T19:00:55;22.90;;;12.50;;
34234;SDS011;20500;49.856;20.290;2023-02-27T19:04:03;23.50;;;12.30;;
34234;SDS011;20500;49.856;20.290;2023-02-27T19:07:11;21.30;;;13.10;;
34234;SDS011;20500;49.856;20.290;2023-02-27T19:10:18;22.00;;;12.50;;
34234;SDS011;20500;49.856;20.290;2023-02-27T19:13:24;22.60;;;11.70;;
34234;SDS011;20500;49.856;20.290;2023-02-27T19:16:31;26.30;;;14.10;;
34234;SDS011;20500;49.856;20.290;2023-02-27T19:19:38;24.10;;;13.60;;
34234;SDS011;20500;49.856;20.290;2023-02-27T19:22:44;25.00;;;13.20;;
34234;SDS011;20500;49.856;20.290;2023-02-27T19:25:57;25.60;;;13.50;;
34234;SDS011;20500;49.856;20.290;2023-02-27T19:29:04;24.90;;;13.80;;
34234;SDS011;20500;49.856;20.290;2023-02-27T19:32:10;24.90;;;13.30;;
34234;SDS011;20500;49.856;20.290;2023-02-27T19:35:17;26.10;;;13.90;;
34234;SDS011;20500;49.856;20.290;2023-02-27T19:38:24;24.10;;;13.30;;
34234;SDS011;20500;49.856;20.290;2023-02-27T19:41:30;22.90;;;13.40;;
34234;SDS011;20500;49.856;20.290;2023-02-27T19:44:36;25.10;;;14.30;;
34234;SDS011;20500;49.856;20.290;2023-02-27T19:47:44;24.70;;;13.70;;
34234;SDS011;20500;49.856;20.290;2023-02-27T19:53:54;25.60;;;15.20;;
34234;SDS011;20500;49.856;20.290;2023-02-27T19:57:01;23.60;;;13.40;;
34234;SDS011;20500;49.856;20.290;2023-02-27T20:00:08;25.10;;;13.50;;
34234;SDS011;20500;49.856;20.290;2023-02-27T20:03:16;22.40;;;12.90;;
34234;SDS011;20500;49.856;20.290;2023-02-27T20:09:29;23.50;;;13.60;;
34234;SDS011;20500;49.856;20.290;2023-02-27T20:12:36;24.00;;;13.00;;
34234;SDS011;20500;49.856;20.290;2023-02-27T20:18:47;24.50;;;13.60;;
34234;SDS011;20500;49.856;20.290;2023-02-27T20:21:53;25.90;;;13.80;;
34234;SDS011;20500;49.856;20.290;2023-02-27T20:28:05;26.80;;;13.10;;
34234;SDS011;20500;49.856;20.290;2023-02-27T20:31:11;25.30;;;14.00;;
34234;SDS011;20500;49.856;20.290;2023-02-27T20:34:20;29.30;;;15.20;;